Alma, Colorado
Current Conditions -  °F | °C
As of 9:17 AM on Thursday 23 Oct 2014 (Local Time) from KCCU Reporting Station
Clear Clear  
Wind Chill: -2°   Ceiling: Unl
Heat Index:   Visibility: 10mi
Dew Point: -3°   Wind: 8mph
Humidity: 70%   Direction: 250°WSW
Pressure: 30.51"   Gusts: 23mph
Location:  39.28°N, 106.06°W
Report Text: KCCU 231517Z AUTO 25007G20KT 10SM CLR 02/M03 A3051 RMK AO2
Loading
Personal Weather Stations






























Interactive Weather Map
Tropical Storm Tracking
New forecast layout! Learn more

10-Day Weather Forecast

Advertisements
Track Severe Weather on mobile